Search for airport 
image banner adimage banner ad
image banner ad

EVAP - Jelgava Amo Plant

Located in , Latvia

ICAO - EVAP, IATA -

Data provided by Airmate  

General information

Coordinates: N56°39'56" E23°46'45"
Elevation is 7 feet MSL.
 
Rated:
View ratings: [VIEW]


View others Airports in Jelgava (city)

Operational data

Open for public use
Current time UTC:
Current local time:
Weather at : EVRA - Riga ( 31 km )
METAR: EVRA 270520Z 16006KT 9999 BKN033 M01/M02 Q0990 R18/190095 NOSIG
TAF: TAF EVRA 270200Z 2703/2803 14007KT 9999 BKN030 TEMPO 2715/2718 BKN007 OVC020 TEMPO 2718/2803 4000 RASN BKN007 OVC020
View NOTAMs / SUP AIP / TFR affecting this airport [VIEW]
Communications frequencies: [VIEW]

Runways:

Airport contact information

Address: Latvia

Satellite view of EVAP